sensor_id;sensor_type;location;lat;lon;timestamp;pressure;altitude;pressure_sealevel;temperature;humidity
73633;BME280;61927;50.080;14.418;2023-05-03T00:00:17;100328.75;;;10.88;58.92
73633;BME280;61927;50.080;14.418;2023-05-03T00:03:04;100326.53;;;10.79;58.97
73633;BME280;61927;50.080;14.418;2023-05-03T00:05:31;100329.19;;;10.79;59.31
73633;BME280;61927;50.080;14.418;2023-05-03T00:07:57;100332.41;;;10.85;59.14
73633;BME280;61927;50.080;14.418;2023-05-03T00:10:23;100332.88;;;10.76;58.95
73633;BME280;61927;50.080;14.418;2023-05-03T00:12:49;100328.78;;;10.69;59.43
73633;BME280;61927;50.080;14.418;2023-05-03T00:15:15;100322.63;;;10.68;59.67
73633;BME280;61927;50.080;14.418;2023-05-03T00:17:40;100328.16;;;10.64;59.53
73633;BME280;61927;50.080;14.418;2023-05-03T00:20:06;100327.00;;;10.70;59.42
73633;BME280;61927;50.080;14.418;2023-05-03T00:22:33;100326.56;;;10.60;59.95
73633;BME280;61927;50.080;14.418;2023-05-03T00:24:59;100322.06;;;10.62;59.50
73633;BME280;61927;50.080;14.418;2023-05-03T00:27:24;100322.84;;;10.64;59.74
73633;BME280;61927;50.080;14.418;2023-05-03T00:29:50;100321.13;;;10.63;59.68
73633;BME280;61927;50.080;14.418;2023-05-03T00:32:22;100320.84;;;10.50;59.79
73633;BME280;61927;50.080;14.418;2023-05-03T00:34:54;100320.41;;;10.41;60.04
73633;BME280;61927;50.080;14.418;2023-05-03T00:37:24;100330.59;;;10.31;60.42
73633;BME280;61927;50.080;14.418;2023-05-03T00:39:51;100326.59;;;10.22;61.08
73633;BME280;61927;50.080;14.418;2023-05-03T00:42:16;100324.72;;;10.24;60.85
73633;BME280;61927;50.080;14.418;2023-05-03T00:44:42;100327.09;;;10.30;61.00
73633;BME280;61927;50.080;14.418;2023-05-03T00:47:08;100322.34;;;10.37;60.56
73633;BME280;61927;50.080;14.418;2023-05-03T00:49:34;100328.59;;;10.36;60.46
73633;BME280;61927;50.080;14.418;2023-05-03T00:52:00;100326.88;;;10.35;60.89
73633;BME280;61927;50.080;14.418;2023-05-03T00:54:26;100332.81;;;10.40;60.60
73633;BME280;61927;50.080;14.418;2023-05-03T00:56:54;100329.66;;;10.32;60.79
73633;BME280;61927;50.080;14.418;2023-05-03T00:59:20;100328.75;;;10.33;60.83
73633;BME280;61927;50.080;14.418;2023-05-03T01:01:50;100337.50;;;10.35;60.57
73633;BME280;61927;50.080;14.418;2023-05-03T01:04:18;100336.97;;;10.27;61.10
73633;BME280;61927;50.080;14.418;2023-05-03T01:10:05;100350.53;;;10.21;61.67
73633;BME280;61927;50.080;14.418;2023-05-03T01:12:47;100350.19;;;10.08;61.99
73633;BME280;61927;50.080;14.418;2023-05-03T01:16:11;100344.75;;;10.11;61.94
73633;BME280;61927;50.080;14.418;2023-05-03T01:18:38;100348.47;;;10.07;61.98
73633;BME280;61927;50.080;14.418;2023-05-03T01:21:04;100347.09;;;9.98;62.31
73633;BME280;61927;50.080;14.418;2023-05-03T01:26:13;100342.72;;;9.97;62.72
73633;BME280;61927;50.080;14.418;2023-05-03T01:28:39;100347.81;;;10.02;62.54
73633;BME280;61927;50.080;14.418;2023-05-03T01:31:05;100347.97;;;9.99;62.57
73633;BME280;61927;50.080;14.418;2023-05-03T01:33:57;100346.66;;;9.89;63.22
73633;BME280;61927;50.080;14.418;2023-05-03T01:36:26;100350.38;;;9.85;62.93
73633;BME280;61927;50.080;14.418;2023-05-03T01:38:54;100343.13;;;9.88;62.93
73633;BME280;61927;50.080;14.418;2023-05-03T01:41:20;100348.78;;;9.81;63.18
73633;BME280;61927;50.080;14.418;2023-05-03T01:43:47;100346.06;;;9.82;63.29
73633;BME280;61927;50.080;14.418;2023-05-03T01:46:14;100354.88;;;9.83;63.28
73633;BME280;61927;50.080;14.418;2023-05-03T01:48:40;100354.69;;;9.87;62.89
73633;BME280;61927;50.080;14.418;2023-05-03T01:51:05;100355.28;;;9.74;62.25
73633;BME280;61927;50.080;14.418;2023-05-03T01:53:31;100344.53;;;9.77;62.52
73633;BME280;61927;50.080;14.418;2023-05-03T01:55:56;100352.94;;;9.86;62.04
73633;BME280;61927;50.080;14.418;2023-05-03T01:58:22;100351.88;;;9.90;61.00
73633;BME280;61927;50.080;14.418;2023-05-03T02:00:48;100346.94;;;9.83;61.65
73633;BME280;61927;50.080;14.418;2023-05-03T02:03:14;100353.69;;;9.90;61.24
73633;BME280;61927;50.080;14.418;2023-05-03T02:05:39;100351.59;;;9.96;61.51
73633;BME280;61927;50.080;14.418;2023-05-03T02:08:05;100350.31;;;9.66;61.75
73633;BME280;61927;50.080;14.418;2023-05-03T02:10:31;100356.56;;;9.65;61.88
73633;BME280;61927;50.080;14.418;2023-05-03T02:12:57;100354.63;;;9.68;61.85
73633;BME280;61927;50.080;14.418;2023-05-03T02:15:23;100362.56;;;9.68;61.33
73633;BME280;61927;50.080;14.418;2023-05-03T02:17:49;100357.28;;;9.68;61.54
73633;BME280;61927;50.080;14.418;2023-05-03T02:20:15;100359.00;;;9.69;62.14
73633;BME280;61927;50.080;14.418;2023-05-03T02:22:41;100361.44;;;9.74;61.58
73633;BME280;61927;50.080;14.418;2023-05-03T02:25:07;100369.53;;;9.71;60.70
73633;BME280;61927;50.080;14.418;2023-05-03T02:27:32;100372.13;;;9.52;61.63
73633;BME280;61927;50.080;14.418;2023-05-03T02:29:58;100360.31;;;9.59;61.28
73633;BME280;61927;50.080;14.418;2023-05-03T02:32:24;100358.00;;;9.72;61.13
73633;BME280;61927;50.080;14.418;2023-05-03T02:34:49;100362.25;;;9.76;60.62
73633;BME280;61927;50.080;14.418;2023-05-03T02:37:15;100360.91;;;9.86;60.59
73633;BME280;61927;50.080;14.418;2023-05-03T02:39:41;100357.72;;;9.98;59.56
73633;BME280;61927;50.080;14.418;2023-05-03T02:42:06;100369.91;;;10.02;59.33
73633;BME280;61927;50.080;14.418;2023-05-03T02:44:33;100360.91;;;9.86;59.53
73633;BME280;61927;50.080;14.418;2023-05-03T02:47:00;100366.69;;;9.76;60.06
73633;BME280;61927;50.080;14.418;2023-05-03T02:49:28;100366.53;;;9.79;60.29
73633;BME280;61927;50.080;14.418;2023-05-03T02:51:55;100376.41;;;9.75;60.18
73633;BME280;61927;50.080;14.418;2023-05-03T02:54:22;100368.81;;;9.67;59.72
73633;BME280;61927;50.080;14.418;2023-05-03T02:56:48;100364.84;;;9.57;59.78
73633;BME280;61927;50.080;14.418;2023-05-03T02:59:13;100363.69;;;9.43;60.58
73633;BME280;61927;50.080;14.418;2023-05-03T03:01:39;100370.88;;;9.19;61.46
73633;BME280;61927;50.080;14.418;2023-05-03T03:04:05;100366.78;;;9.12;61.67
73633;BME280;61927;50.080;14.418;2023-05-03T03:06:31;100370.94;;;9.17;61.20
73633;BME280;61927;50.080;14.418;2023-05-03T03:08:56;100376.13;;;9.20;61.03
73633;BME280;61927;50.080;14.418;2023-05-03T03:11:22;100372.41;;;9.24;61.23
73633;BME280;61927;50.080;14.418;2023-05-03T03:13:48;100374.63;;;9.35;60.84
73633;BME280;61927;50.080;14.418;2023-05-03T03:16:14;100381.44;;;9.41;60.62
73633;BME280;61927;50.080;14.418;2023-05-03T03:18:39;100385.44;;;9.51;60.48
73633;BME280;61927;50.080;14.418;2023-05-03T03:21:05;100382.91;;;9.68;59.44
73633;BME280;61927;50.080;14.418;2023-05-03T03:23:30;100385.56;;;9.68;58.33
73633;BME280;61927;50.080;14.418;2023-05-03T03:25:57;100388.88;;;9.53;58.93
73633;BME280;61927;50.080;14.418;2023-05-03T03:28:23;100387.94;;;9.54;59.26
73633;BME280;61927;50.080;14.418;2023-05-03T03:30:49;100384.91;;;9.63;58.75
73633;BME280;61927;50.080;14.418;2023-05-03T03:33:14;100389.00;;;9.70;59.27
73633;BME280;61927;50.080;14.418;2023-05-03T03:35:40;100388.75;;;9.76;59.11
73633;BME280;61927;50.080;14.418;2023-05-03T03:38:05;100389.47;;;9.80;58.26
73633;BME280;61927;50.080;14.418;2023-05-03T03:40:32;100386.81;;;9.80;58.15
73633;BME280;61927;50.080;14.418;2023-05-03T03:42:57;100392.66;;;9.67;58.28
73633;BME280;61927;50.080;14.418;2023-05-03T03:45:23;100393.03;;;9.58;58.17
73633;BME280;61927;50.080;14.418;2023-05-03T03:47:48;100395.81;;;9.55;57.72
73633;BME280;61927;50.080;14.418;2023-05-03T03:50:14;100391.97;;;9.42;57.97
73633;BME280;61927;50.080;14.418;2023-05-03T03:52:40;100396.78;;;9.32;57.87
73633;BME280;61927;50.080;14.418;2023-05-03T03:55:06;100394.22;;;9.31;57.18
73633;BME280;61927;50.080;14.418;2023-05-03T03:57:32;100391.50;;;9.32;58.14
73633;BME280;61927;50.080;14.418;2023-05-03T03:59:58;100391.69;;;9.28;58.29
73633;BME280;61927;50.080;14.418;2023-05-03T04:02:32;100399.75;;;9.25;58.11
73633;BME280;61927;50.080;14.418;2023-05-03T04:05:01;100397.44;;;9.17;58.29
73633;BME280;61927;50.080;14.418;2023-05-03T04:07:26;100397.56;;;9.14;59.11
73633;BME280;61927;50.080;14.418;2023-05-03T04:09:52;100403.84;;;9.12;58.44
73633;BME280;61927;50.080;14.418;2023-05-03T04:12:18;100412.75;;;9.09;58.06
73633;BME280;61927;50.080;14.418;2023-05-03T04:14:44;100405.44;;;8.94;58.12
73633;BME280;61927;50.080;14.418;2023-05-03T04:17:10;100412.25;;;8.78;57.95
73633;BME280;61927;50.080;14.418;2023-05-03T04:19:35;100409.34;;;8.62;58.85
73633;BME280;61927;50.080;14.418;2023-05-03T04:22:03;100415.16;;;8.48;59.42
73633;BME280;61927;50.080;14.418;2023-05-03T04:24:28;100417.94;;;8.45;59.33
73633;BME280;61927;50.080;14.418;2023-05-03T04:26:55;100415.41;;;8.42;59.47
73633;BME280;61927;50.080;14.418;2023-05-03T04:29:21;100422.69;;;8.35;59.30
73633;BME280;61927;50.080;14.418;2023-05-03T04:31:46;100431.16;;;8.20;59.83
73633;BME280;61927;50.080;14.418;2023-05-03T04:34:12;100430.47;;;8.15;60.40
73633;BME280;61927;50.080;14.418;2023-05-03T04:36:41;100431.97;;;8.22;60.47
73633;BME280;61927;50.080;14.418;2023-05-03T04:39:07;100442.19;;;8.33;60.39
73633;BME280;61927;50.080;14.418;2023-05-03T04:41:35;100442.13;;;8.34;60.14
73633;BME280;61927;50.080;14.418;2023-05-03T04:44:01;100444.81;;;8.33;60.40
73633;BME280;61927;50.080;14.418;2023-05-03T04:46:26;100444.09;;;8.28;60.14
73633;BME280;61927;50.080;14.418;2023-05-03T04:48:52;100444.81;;;8.33;59.71
73633;BME280;61927;50.080;14.418;2023-05-03T04:51:18;100443.63;;;8.41;59.33
73633;BME280;61927;50.080;14.418;2023-05-03T04:53:43;100451.22;;;8.51;58.49
73633;BME280;61927;50.080;14.418;2023-05-03T04:56:09;100455.81;;;8.46;58.62
73633;BME280;61927;50.080;14.418;2023-05-03T04:58:35;100460.47;;;8.39;58.49
73633;BME280;61927;50.080;14.418;2023-05-03T05:01:01;100456.03;;;8.39;58.28
73633;BME280;61927;50.080;14.418;2023-05-03T05:03:28;100454.66;;;8.53;57.87
73633;BME280;61927;50.080;14.418;2023-05-03T05:05:55;100459.84;;;8.56;57.90
73633;BME280;61927;50.080;14.418;2023-05-03T05:08:21;100466.63;;;8.63;57.30
73633;BME280;61927;50.080;14.418;2023-05-03T05:10:46;100466.34;;;8.70;57.02
73633;BME280;61927;50.080;14.418;2023-05-03T05:13:13;100461.34;;;8.63;57.00
73633;BME280;61927;50.080;14.418;2023-05-03T05:15:38;100472.16;;;8.57;56.72
73633;BME280;61927;50.080;14.418;2023-05-03T05:18:04;100471.88;;;8.64;56.82
73633;BME280;61927;50.080;14.418;2023-05-03T05:20:33;100477.63;;;8.76;56.19
73633;BME280;61927;50.080;14.418;2023-05-03T05:22:59;100466.72;;;8.83;56.21
73633;BME280;61927;50.080;14.418;2023-05-03T05:25:25;100461.03;;;8.94;56.64
73633;BME280;61927;50.080;14.418;2023-05-03T05:27:50;100470.09;;;9.10;55.65
73633;BME280;61927;50.080;14.418;2023-05-03T05:30:16;100477.06;;;9.13;55.72
73633;BME280;61927;50.080;14.418;2023-05-03T05:32:42;100480.00;;;9.05;55.51
73633;BME280;61927;50.080;14.418;2023-05-03T05:35:08;100475.22;;;9.15;55.65
73633;BME280;61927;50.080;14.418;2023-05-03T05:37:34;100477.38;;;9.27;54.61
73633;BME280;61927;50.080;14.418;2023-05-03T05:39:59;100483.78;;;9.43;54.02
73633;BME280;61927;50.080;14.418;2023-05-03T05:42:25;100487.09;;;9.48;53.59
73633;BME280;61927;50.080;14.418;2023-05-03T05:44:51;100490.19;;;9.37;53.87
73633;BME280;61927;50.080;14.418;2023-05-03T05:47:17;100493.56;;;9.41;54.18
73633;BME280;61927;50.080;14.418;2023-05-03T05:49:42;100496.81;;;9.48;53.67
73633;BME280;61927;50.080;14.418;2023-05-03T05:52:08;100505.25;;;9.57;54.05
73633;BME280;61927;50.080;14.418;2023-05-03T05:54:33;100503.97;;;9.67;52.93
73633;BME280;61927;50.080;14.418;2023-05-03T05:56:59;100509.38;;;9.64;52.43
73633;BME280;61927;50.080;14.418;2023-05-03T05:59:25;100502.16;;;9.68;52.04
73633;BME280;61927;50.080;14.418;2023-05-03T06:01:51;100506.88;;;9.61;52.40
73633;BME280;61927;50.080;14.418;2023-05-03T06:04:17;100513.75;;;9.65;52.70
73633;BME280;61927;50.080;14.418;2023-05-03T06:06:42;100515.81;;;9.59;52.04
73633;BME280;61927;50.080;14.418;2023-05-03T06:09:08;100520.00;;;9.64;51.76
73633;BME280;61927;50.080;14.418;2023-05-03T06:11:34;100509.69;;;9.79;51.63
73633;BME280;61927;50.080;14.418;2023-05-03T06:14:00;100519.34;;;9.80;51.08
73633;BME280;61927;50.080;14.418;2023-05-03T06:16:28;100522.81;;;9.82;50.97
73633;BME280;61927;50.080;14.418;2023-05-03T06:18:54;100518.69;;;9.75;51.23
73633;BME280;61927;50.080;14.418;2023-05-03T06:21:21;100520.03;;;9.85;51.36
73633;BME280;61927;50.080;14.418;2023-05-03T06:23:46;100519.38;;;10.00;50.11
73633;BME280;61927;50.080;14.418;2023-05-03T06:26:12;100519.34;;;10.22;49.07
73633;BME280;61927;50.080;14.418;2023-05-03T06:28:38;100521.53;;;10.53;48.42
73633;BME280;61927;50.080;14.418;2023-05-03T06:31:04;100525.66;;;10.79;48.34
73633;BME280;61927;50.080;14.418;2023-05-03T06:33:29;100522.78;;;10.83;47.26
73633;BME280;61927;50.080;14.418;2023-05-03T06:35:55;100528.41;;;10.57;48.26
73633;BME280;61927;50.080;14.418;2023-05-03T06:38:21;100526.69;;;10.56;48.42
73633;BME280;61927;50.080;14.418;2023-05-03T06:40:47;100533.06;;;10.52;48.64
73633;BME280;61927;50.080;14.418;2023-05-03T06:43:13;100528.22;;;10.61;47.53
73633;BME280;61927;50.080;14.418;2023-05-03T06:45:41;100529.59;;;10.70;47.11
73633;BME280;61927;50.080;14.418;2023-05-03T06:48:07;100537.84;;;10.64;47.05
73633;BME280;61927;50.080;14.418;2023-05-03T06:50:34;100540.31;;;10.28;48.67
73633;BME280;61927;50.080;14.418;2023-05-03T06:53:00;100536.19;;;10.21;48.94
73633;BME280;61927;50.080;14.418;2023-05-03T06:55:26;100537.59;;;10.29;48.86
73633;BME280;61927;50.080;14.418;2023-05-03T06:57:52;100537.97;;;10.41;47.66
73633;BME280;61927;50.080;14.418;2023-05-03T07:00:19;100537.84;;;10.44;47.17
73633;BME280;61927;50.080;14.418;2023-05-03T07:02:46;100536.19;;;10.41;47.79
73633;BME280;61927;50.080;14.418;2023-05-03T07:05:12;100533.00;;;10.53;47.48
73633;BME280;61927;50.080;14.418;2023-05-03T07:07:37;100539.31;;;10.51;47.82
73633;BME280;61927;50.080;14.418;2023-05-03T07:10:04;100536.09;;;10.63;47.33
73633;BME280;61927;50.080;14.418;2023-05-03T07:12:30;100524.72;;;10.80;47.32
73633;BME280;61927;50.080;14.418;2023-05-03T07:14:57;100525.31;;;10.86;47.27
73633;BME280;61927;50.080;14.418;2023-05-03T07:17:23;100540.47;;;10.64;47.58
73633;BME280;61927;50.080;14.418;2023-05-03T07:19:50;100525.22;;;10.69;47.64
73633;BME280;61927;50.080;14.418;2023-05-03T07:22:16;100522.94;;;10.99;47.27
73633;BME280;61927;50.080;14.418;2023-05-03T07:24:43;100522.72;;;11.22;46.48
73633;BME280;61927;50.080;14.418;2023-05-03T07:27:08;100511.44;;;11.36;45.83
73633;BME280;61927;50.080;14.418;2023-05-03T07:29:34;100514.59;;;11.44;45.02
73633;BME280;61927;50.080;14.418;2023-05-03T07:32:00;100516.19;;;11.65;44.93
73633;BME280;61927;50.080;14.418;2023-05-03T07:34:26;100519.00;;;11.81;44.35
73633;BME280;61927;50.080;14.418;2023-05-03T07:36:51;100515.81;;;11.92;44.32
73633;BME280;61927;50.080;14.418;2023-05-03T07:39:18;100516.88;;;11.88;43.96
73633;BME280;61927;50.080;14.418;2023-05-03T07:41:44;100505.00;;;11.78;44.18
73633;BME280;61927;50.080;14.418;2023-05-03T07:44:09;100514.56;;;11.63;44.85
73633;BME280;61927;50.080;14.418;2023-05-03T07:46:35;100508.59;;;11.58;45.03
73633;BME280;61927;50.080;14.418;2023-05-03T07:49:02;100506.78;;;11.41;45.02
73633;BME280;61927;50.080;14.418;2023-05-03T07:51:28;100506.34;;;11.31;45.68
73633;BME280;61927;50.080;14.418;2023-05-03T07:53:54;100509.09;;;11.30;46.33
73633;BME280;61927;50.080;14.418;2023-05-03T07:56:26;100500.75;;;11.38;45.90
73633;BME280;61927;50.080;14.418;2023-05-03T07:58:52;100511.34;;;11.56;44.73
73633;BME280;61927;50.080;14.418;2023-05-03T08:01:19;100518.28;;;11.78;44.63
73633;BME280;61927;50.080;14.418;2023-05-03T08:03:45;100517.94;;;11.67;44.22
73633;BME280;61927;50.080;14.418;2023-05-03T08:06:17;100512.22;;;11.74;44.22
73633;BME280;61927;50.080;14.418;2023-05-03T08:08:45;100511.50;;;11.89;44.51
73633;BME280;61927;50.080;14.418;2023-05-03T08:11:10;100495.94;;;11.82;44.68
73633;BME280;61927;50.080;14.418;2023-05-03T08:13:36;100499.69;;;11.59;45.17
73633;BME280;61927;50.080;14.418;2023-05-03T08:16:03;100496.66;;;11.67;45.73
73633;BME280;61927;50.080;14.418;2023-05-03T08:18:30;100489.66;;;11.83;45.33
73633;BME280;61927;50.080;14.418;2023-05-03T08:20:56;100486.00;;;12.03;45.25
73633;BME280;61927;50.080;14.418;2023-05-03T08:23:23;100496.41;;;12.07;45.14
73633;BME280;61927;50.080;14.418;2023-05-03T08:25:49;100494.03;;;12.18;45.50
73633;BME280;61927;50.080;14.418;2023-05-03T08:28:15;100495.50;;;12.41;45.16
73633;BME280;61927;50.080;14.418;2023-05-03T08:30:41;100492.09;;;12.55;44.65
73633;BME280;61927;50.080;14.418;2023-05-03T08:33:07;100498.78;;;12.46;44.91
73633;BME280;61927;50.080;14.418;2023-05-03T08:35:35;100502.63;;;12.41;45.24
73633;BME280;61927;50.080;14.418;2023-05-03T08:38:01;100493.13;;;12.52;45.22
73633;BME280;61927;50.080;14.418;2023-05-03T08:40:28;100491.56;;;12.48;44.83
73633;BME280;61927;50.080;14.418;2023-05-03T08:42:58;100490.91;;;12.60;44.81
73633;BME280;61927;50.080;14.418;2023-05-03T08:45:31;100489.97;;;12.61;44.90
73633;BME280;61927;50.080;14.418;2023-05-03T08:47:57;100488.50;;;12.56;44.78
73633;BME280;61927;50.080;14.418;2023-05-03T08:50:23;100480.63;;;12.70;44.83
73633;BME280;61927;50.080;14.418;2023-05-03T08:52:50;100488.09;;;12.64;44.69
73633;BME280;61927;50.080;14.418;2023-05-03T08:55:16;100483.75;;;12.78;44.91
73633;BME280;61927;50.080;14.418;2023-05-03T08:57:42;100491.16;;;13.05;44.83
73633;BME280;61927;50.080;14.418;2023-05-03T09:00:07;100482.25;;;13.21;44.22
73633;BME280;61927;50.080;14.418;2023-05-03T09:02:36;100486.09;;;13.00;44.00
73633;BME280;61927;50.080;14.418;2023-05-03T09:05:30;100491.06;;;12.90;44.37
73633;BME280;61927;50.080;14.418;2023-05-03T09:08:08;100480.75;;;12.84;44.85
73633;BME280;61927;50.080;14.418;2023-05-03T09:10:39;100489.06;;;12.78;45.50
73633;BME280;61927;50.080;14.418;2023-05-03T09:13:06;100486.78;;;13.04;44.87
73633;BME280;61927;50.080;14.418;2023-05-03T09:15:32;100498.97;;;13.08;44.28
73633;BME280;61927;50.080;14.418;2023-05-03T09:20:37;100490.97;;;12.76;45.69
73633;BME280;61927;50.080;14.418;2023-05-03T09:23:06;100489.59;;;12.85;45.36
73633;BME280;61927;50.080;14.418;2023-05-03T09:25:49;100497.53;;;13.02;45.48
73633;BME280;61927;50.080;14.418;2023-05-03T09:28:16;100481.22;;;13.24;44.71
73633;BME280;61927;50.080;14.418;2023-05-03T09:30:43;100481.22;;;13.40;44.16
73633;BME280;61927;50.080;14.418;2023-05-03T09:33:09;100473.28;;;13.54;43.74
73633;BME280;61927;50.080;14.418;2023-05-03T09:35:48;100472.34;;;13.55;43.80
73633;BME280;61927;50.080;14.418;2023-05-03T09:38:31;100482.31;;;13.51;43.73
73633;BME280;61927;50.080;14.418;2023-05-03T09:40:57;100483.44;;;13.47;43.90
73633;BME280;61927;50.080;14.418;2023-05-03T09:43:23;100477.88;;;13.36;43.96
73633;BME280;61927;50.080;14.418;2023-05-03T09:45:48;100472.34;;;13.08;44.42
73633;BME280;61927;50.080;14.418;2023-05-03T09:48:15;100472.69;;;13.02;44.82
73633;BME280;61927;50.080;14.418;2023-05-03T09:50:42;100470.09;;;13.16;44.30
73633;BME280;61927;50.080;14.418;2023-05-03T09:53:09;100472.88;;;13.30;44.06
73633;BME280;61927;50.080;14.418;2023-05-03T09:55:38;100465.56;;;13.49;43.39
73633;BME280;61927;50.080;14.418;2023-05-03T09:58:06;100475.38;;;13.33;43.67
73633;BME280;61927;50.080;14.418;2023-05-03T10:00:36;100474.00;;;13.42;43.26
73633;BME280;61927;50.080;14.418;2023-05-03T10:03:10;100478.09;;;13.63;42.99
73633;BME280;61927;50.080;14.418;2023-05-03T10:05:46;100473.44;;;13.67;42.03
73633;BME280;61927;50.080;14.418;2023-05-03T10:08:21;100476.47;;;13.61;42.26
73633;BME280;61927;50.080;14.418;2023-05-03T10:10:49;100459.19;;;13.36;43.42
73633;BME280;61927;50.080;14.418;2023-05-03T10:13:22;100464.78;;;13.00;44.48
73633;BME280;61927;50.080;14.418;2023-05-03T10:15:52;100472.41;;;12.75;44.42
73633;BME280;61927;50.080;14.418;2023-05-03T10:18:24;100458.59;;;12.51;44.76
73633;BME280;61927;50.080;14.418;2023-05-03T10:21:13;100457.47;;;12.39;44.62
73633;BME280;61927;50.080;14.418;2023-05-03T10:24:17;100457.94;;;12.63;44.05
73633;BME280;61927;50.080;14.418;2023-05-03T10:26:44;100447.66;;;13.04;43.31
73633;BME280;61927;50.080;14.418;2023-05-03T10:29:44;100446.19;;;13.46;41.25
73633;BME280;61927;50.080;14.418;2023-05-03T10:32:34;100437.91;;;13.66;40.52
73633;BME280;61927;50.080;14.418;2023-05-03T10:35:14;100450.66;;;13.91;40.74
73633;BME280;61927;50.080;14.418;2023-05-03T10:37:42;100443.81;;;13.41;40.68
73633;BME280;61927;50.080;14.418;2023-05-03T10:40:13;100447.19;;;13.29;41.20
73633;BME280;61927;50.080;14.418;2023-05-03T10:42:44;100447.69;;;13.20;41.57
73633;BME280;61927;50.080;14.418;2023-05-03T10:45:22;100447.00;;;13.32;41.71
73633;BME280;61927;50.080;14.418;2023-05-03T10:50:37;100448.19;;;13.11;40.76
73633;BME280;61927;50.080;14.418;2023-05-03T10:53:02;100437.28;;;13.31;40.26
73633;BME280;61927;50.080;14.418;2023-05-03T10:55:31;100437.22;;;13.63;40.26
73633;BME280;61927;50.080;14.418;2023-05-03T10:57:58;100445.81;;;13.68;40.02
73633;BME280;61927;50.080;14.418;2023-05-03T11:00:37;100439.28;;;13.87;39.62
73633;BME280;61927;50.080;14.418;2023-05-03T11:03:29;100429.72;;;14.13;39.92
73633;BME280;61927;50.080;14.418;2023-05-03T11:05:58;100430.00;;;14.09;39.69
73633;BME280;61927;50.080;14.418;2023-05-03T11:08:24;100426.97;;;14.15;42.76
73633;BME280;61927;50.080;14.418;2023-05-03T11:10:59;100434.31;;;14.26;40.70
73633;BME280;61927;50.080;14.418;2023-05-03T11:13:25;100432.38;;;13.99;40.92
73633;BME280;61927;50.080;14.418;2023-05-03T11:15:54;100427.84;;;13.85;39.11
73633;BME280;61927;50.080;14.418;2023-05-03T11:18:21;100421.16;;;13.78;39.04
73633;BME280;61927;50.080;14.418;2023-05-03T11:20:48;100419.41;;;13.63;39.71
73633;BME280;61927;50.080;14.418;2023-05-03T11:23:14;100402.00;;;13.72;39.33
73633;BME280;61927;50.080;14.418;2023-05-03T11:25:40;100416.78;;;13.77;39.49
73633;BME280;61927;50.080;14.418;2023-05-03T11:28:06;100411.84;;;13.85;39.73
73633;BME280;61927;50.080;14.418;2023-05-03T11:30:33;100410.53;;;13.93;40.06
73633;BME280;61927;50.080;14.418;2023-05-03T11:33:01;100418.25;;;13.97;39.48
73633;BME280;61927;50.080;14.418;2023-05-03T11:35:30;100398.56;;;13.70;39.33
73633;BME280;61927;50.080;14.418;2023-05-03T11:37:57;100400.88;;;13.46;38.98
73633;BME280;61927;50.080;14.418;2023-05-03T11:40:23;100399.72;;;13.20;39.74
73633;BME280;61927;50.080;14.418;2023-05-03T11:42:53;100398.34;;;13.29;39.39
73633;BME280;61927;50.080;14.418;2023-05-03T11:45:21;100402.44;;;13.34;39.52
73633;BME280;61927;50.080;14.418;2023-05-03T11:47:47;100402.88;;;13.42;39.11
73633;BME280;61927;50.080;14.418;2023-05-03T11:50:14;100397.25;;;13.47;39.32
73633;BME280;61927;50.080;14.418;2023-05-03T11:52:40;100402.00;;;13.42;39.14
73633;BME280;61927;50.080;14.418;2023-05-03T11:55:07;100390.75;;;13.37;38.79
73633;BME280;61927;50.080;14.418;2023-05-03T11:57:35;100408.78;;;13.47;38.74
73633;BME280;61927;50.080;14.418;2023-05-03T12:00:12;100396.34;;;13.62;37.69
73633;BME280;61927;50.080;14.418;2023-05-03T12:02:39;100396.41;;;13.76;37.20
73633;BME280;61927;50.080;14.418;2023-05-03T12:05:07;100394.09;;;13.70;36.84
73633;BME280;61927;50.080;14.418;2023-05-03T12:07:35;100391.16;;;13.75;37.21
73633;BME280;61927;50.080;14.418;2023-05-03T12:10:15;100396.13;;;13.81;37.15
73633;BME280;61927;50.080;14.418;2023-05-03T12:12:55;100392.50;;;13.82;37.06
73633;BME280;61927;50.080;14.418;2023-05-03T12:15:28;100383.75;;;13.94;37.11
73633;BME280;61927;50.080;14.418;2023-05-03T12:17:56;100381.47;;;14.02;37.41
73633;BME280;61927;50.080;14.418;2023-05-03T12:20:23;100378.44;;;14.22;37.34
73633;BME280;61927;50.080;14.418;2023-05-03T12:22:54;100375.41;;;14.43;36.80
73633;BME280;61927;50.080;14.418;2023-05-03T12:25:20;100371.00;;;14.56;36.65
73633;BME280;61927;50.080;14.418;2023-05-03T12:27:47;100371.78;;;14.58;36.11
73633;BME280;61927;50.080;14.418;2023-05-03T12:30:13;100377.31;;;14.55;36.00
73633;BME280;61927;50.080;14.418;2023-05-03T12:32:40;100378.72;;;14.32;36.28
73633;BME280;61927;50.080;14.418;2023-05-03T12:35:07;100369.84;;;14.32;36.26
73633;BME280;61927;50.080;14.418;2023-05-03T12:37:34;100371.03;;;14.42;36.37
73633;BME280;61927;50.080;14.418;2023-05-03T12:40:00;100365.97;;;14.51;35.71
73633;BME280;61927;50.080;14.418;2023-05-03T12:42:26;100367.94;;;14.62;35.72
73633;BME280;61927;50.080;14.418;2023-05-03T12:44:59;100357.25;;;14.62;35.63
73633;BME280;61927;50.080;14.418;2023-05-03T12:47:25;100353.84;;;14.60;35.70
73633;BME280;61927;50.080;14.418;2023-05-03T12:49:54;100355.50;;;14.75;35.42
73633;BME280;61927;50.080;14.418;2023-05-03T12:52:20;100348.25;;;14.77;35.81
73633;BME280;61927;50.080;14.418;2023-05-03T12:54:47;100348.16;;;14.79;35.86
73633;BME280;61927;50.080;14.418;2023-05-03T12:57:12;100352.91;;;14.88;35.96